Wetterstation CH-4312 Magden
Wetterdaten: aktuell Dienstag, 20.11.2018 08:30
Datum Zeit Temp. I. Temp. A. Solkit WP Vorl Feuchte I. Feuchte A. Luftdruck Regen Wind Richtung Richtung Sonnenschein UV Solar Taupunkt Windchill Windben
20.11.2018 08:30 20.4 C 1.3 C 12.8 C 33.9 C 54 % 79 % 1005.0 hPa 0.0 mm 5.7 km/h S-SO 148 0 min 0.0 UV-I 33 W/m -1.9 C -0.4 C 19.3 km/h
20.11.2018 07:30 20.1 C 1.3 C 12.8 C 33.3 C 54 % 80 % 1004.4 hPa 0.0 mm 0.8 km/h O-NO 69 0 min 0.0 UV-I 0 W/m -1.8 C 1.3 C 6.4 km/h
20.11.2018 06:30 20.0 C 1.3 C 12.8 C 32.8 C 56 % 80 % 1004.4 hPa 0.0 mm 3.3 km/h O-NO 75 0 min 0.0 UV-I 0 W/m -1.8 C 1.3 C 17.7 km/h
20.11.2018 05:30 19.8 C 1.3 C 12.8 C 31.1 C 56 % 80 % 1004.2 hPa 0.0 mm 0.0 km/h NO 45 0 min 0.0 UV-I 0 W/m -1.8 C 1.3 C 1.6 km/h
20.11.2018 04:30 19.7 C 1.6 C 12.8 C 30.0 C 56 % 79 % 1003.9 hPa 0.0 mm 0.9 km/h O-SO 114 0 min 0.0 UV-I 0 W/m -1.6 C 1.6 C 9.7 km/h
20.11.2018 03:30 19.8 C 1.6 C 12.2 C 23.3 C 56 % 79 % 1003.8 hPa 0.0 mm 9.2 km/h NO 41 0 min 0.0 UV-I 0 W/m -1.6 C -1.2 C 17.7 km/h
20.11.2018 02:30 19.9 C 1.6 C 12.8 C 17.2 C 56 % 80 % 1004.3 hPa 0.0 mm 0.0 km/h N-NO 32 0 min 0.0 UV-I 0 W/m -1.5 C 1.6 C 0.0 km/h
20.11.2018 01:30 20.0 C 1.6 C 12.8 C 17.8 C 56 % 79 % 1004.6 hPa 0.0 mm 4.2 km/h O-NO 62 0 min 0.0 UV-I 0 W/m -1.6 C 1.6 C 19.3 km/h
20.11.2018 00:30 20.1 C 1.6 C 12.8 C 18.9 C 55 % 79 % 1005.0 hPa 0.0 mm 6.5 km/h O-NO 75 0 min 0.0 UV-I 0 W/m -1.6 C -0.4 C 19.3 km/h
19.11.2018 23:30 20.2 C 1.6 C 12.8 C 20.0 C 55 % 79 % 1005.6 hPa 0.0 mm 6.3 km/h NO 39 0 min 0.0 UV-I 0 W/m -1.6 C -0.3 C 19.3 km/h
19.11.2018 22:30 20.5 C 1.6 C 12.2 C 15.0 C 55 % 79 % 1005.7 hPa 0.0 mm 8.5 km/h NO 45 0 min 0.0 UV-I 0 W/m -1.6 C -1.0 C 24.1 km/h
19.11.2018 21:30 20.3 C 1.4 C 12.8 C 15.6 C 55 % 80 % 1006.1 hPa 0.0 mm 2.9 km/h NO 53 0 min 0.0 UV-I 0 W/m -1.7 C 1.4 C 16.1 km/h
19.11.2018 20:30 20.4 C 1.3 C 12.8 C 16.1 C 55 % 82 % 1006.2 hPa 0.0 mm 1.4 km/h NO 36 0 min 0.0 UV-I 0 W/m -1.4 C 1.3 C 14.5 km/h
19.11.2018 19:30 20.5 C 1.3 C 12.8 C 16.7 C 54 % 82 % 1006.4 hPa 0.0 mm 5.0 km/h NO 56 0 min 0.0 UV-I 0 W/m -1.4 C -0.1 C 16.1 km/h
19.11.2018 18:30 20.7 C 1.3 C 12.8 C 17.8 C 54 % 85 % 1006.7 hPa 0.0 mm 1.3 km/h O 83 0 min 0.0 UV-I 0 W/m -0.9 C 1.3 C 8.0 km/h
19.11.2018 17:30 20.5 C 0.4 C 12.8 C 19.4 C 53 % 91 % 1006.9 hPa 0.0 mm 0.0 km/h NW 314 0 min 0.0 UV-I 0 W/m -0.9 C 0.4 C 0.0 km/h
19.11.2018 16:30 20.6 C 0.1 C 12.8 C 22.2 C 53 % 90 % 1007.1 hPa 0.0 mm 0.0 km/h NW 315 0 min 0.0 UV-I 0 W/m -1.3 C 0.1 C 0.0 km/h
19.11.2018 15:30 20.6 C 0.3 C 12.8 C 25.0 C 53 % 89 % 1007.5 hPa 0.0 mm 0.3 km/h NW 316 0 min 0.0 UV-I 21 W/m -1.3 C 0.3 C 4.8 km/h
19.11.2018 14:30 20.4 C 0.8 C 12.8 C 32.8 C 53 % 86 % 1007.9 hPa 0.0 mm 1.5 km/h O-NO 74 0 min 0.0 UV-I 47 W/m -1.3 C 0.8 C 8.0 km/h
19.11.2018 13:30 20.2 C 0.2 C 12.8 C 31.7 C 52 % 81 % 1008.5 hPa 0.0 mm 0.0 km/h NW 306 0 min 0.0 UV-I 39 W/m -2.7 C 0.2 C 1.6 km/h
19.11.2018 12:30 20.1 C -0.1 C 12.8 C 27.8 C 51 % 80 % 1009.0 hPa 0.0 mm 0.2 km/h W-NW 302 0 min 0.0 UV-I 32 W/m -3.1 C -0.1 C 4.8 km/h
19.11.2018 11:30 20.4 C -0.3 C 12.8 C 22.2 C 53 % 80 % 1009.7 hPa 0.0 mm 0.9 km/h W-NW 300 0 min 0.0 UV-I 40 W/m -3.3 C -0.3 C 8.0 km/h
19.11.2018 10:30 20.4 C -0.7 C 12.8 C 20.0 C 53 % 82 % 1010.6 hPa 0.0 mm 0.0 km/h W-NW 302 0 min 0.0 UV-I 70 W/m -3.4 C -0.7 C 0.0 km/h
19.11.2018 09:30 20.5 C -0.8 C 12.8 C 23.3 C 53 % 83 % 1011.2 hPa 0.0 mm 0.3 km/h NW 311 0 min 0.0 UV-I 21 W/m -3.3 C -0.8 C 4.8 km/h
19.11.2018 09:00 20.4 C -0.8 C 13.3 C 25.0 C 53 % 83 % 1011.4 hPa 0.0 mm 0.0 km/h NW 312 0 min 0.0 UV-I 5 W/m -3.3 C -0.8 C 3.2 km/h
_ Min-Zeit 04:20 09:50 15:40 22:20 11:50 04:00 03:40 - 09:00 - - - - - 10:10 22:40 09:10
Minimum _ 19.7 C -0.9 C 12.2 C 15.0 C 50 % 78 % 1003.7 hPa - 0.0 km/h - - - - - -3.5 C -1.9 C 0.0 km/h
_ Max-Zeit 18:30 01:00 09:00 07:50 01:30 16:50 09:00 09:00 22:40 - - 09:00 09:00 11:00 18:10 02:10 07:50
Maximum _ 20.7 C 1.7 C 13.3 C 33.9 C 56 % 91 % 1011.4 hPa 0.0 mm 12.4 km/h
O-NO
- - 0 min 0.0 UV-I 107 W/m -0.6 C 1.7 C 46.7 km/h
NO
Durchschnitt _ 20.3 C 0.8 C 12.8 C 23.3 C 54 % 82 % 1006.8 hPa #0.0 mm 2.2 km/h O-NO - #0 min. 0.0 UV-I 22 W/m -2.0 C 0.3 C 9.9 km/h
Wetterstation CH-4312 Magden